Time;durP1;ratioP1;P1;durP2;ratioP2;P2;SDS_P1;SDS_P2;PMS_P1;PMS_P2;Temp;Humidity;BMP_temperature;BMP_pressure;BME280_temperature;BME280_humidity;BME280_pressure;Samples;Min_cycle;Max_cycle;Signal;HPM_P1;HPM_P2
2023/11/07 00:00:22;;;;;;;11.10;5.93;;;5.40;99.90;;;;;;4126175;28;20118;-60
2023/11/07 00:02:23;;;;;;;14.87;6.80;;;5.40;99.90;;;;;;4113323;28;20031;-58
2023/11/07 00:04:24;;;;;;;14.97;7.10;;;5.40;99.90;;;;;;4113871;28;20055;-59
2023/11/07 00:06:26;;;;;;;13.47;6.50;;;5.40;99.90;;;;;;4114251;28;20053;-59
2023/11/07 00:08:27;;;;;;;12.23;6.60;;;5.30;99.90;;;;;;4112184;28;20085;-58
2023/11/07 00:10:29;;;;;;;13.20;6.47;;;5.20;99.90;;;;;;4113258;28;20062;-59
2023/11/07 00:12:30;;;;;;;12.87;7.30;;;5.10;99.90;;;;;;4115068;28;20034;-59
2023/11/07 00:14:31;;;;;;;15.37;6.40;;;5.00;99.90;;;;;;4113956;28;20034;-59
2023/11/07 00:16:34;;;;;;;16.50;6.93;;;5.00;99.90;;;;;;4123723;28;20034;-60
2023/11/07 00:18:35;;;;;;;14.37;7.53;;;5.00;99.90;;;;;;4128535;28;20069;-55
2023/11/07 00:20:36;;;;;;;14.87;7.27;;;5.00;99.90;;;;;;4126750;28;20504;-60
2023/11/07 00:22:38;;;;;;;16.70;8.83;;;5.00;99.90;;;;;;4113144;28;20109;-61
2023/11/07 00:24:40;;;;;;;14.33;8.13;;;5.00;99.90;;;;;;4113070;28;20034;-58
2023/11/07 00:26:41;;;;;;;20.13;7.80;;;5.00;99.90;;;;;;4113067;28;20030;-58
2023/11/07 00:28:43;;;;;;;16.13;8.00;;;5.00;99.90;;;;;;4116523;28;20070;-59
2023/11/07 00:30:44;;;;;;;15.17;7.03;;;5.10;99.90;;;;;;4127558;28;20133;-61
2023/11/07 00:32:45;;;;;;;15.53;7.07;;;5.10;99.90;;;;;;4125664;28;20656;-59
2023/11/07 00:34:46;;;;;;;12.97;7.10;;;5.10;99.90;;;;;;4115301;28;20034;-56
2023/11/07 00:36:47;;;;;;;18.27;7.10;;;5.10;99.90;;;;;;4113880;28;20038;-60
2023/11/07 00:38:48;;;;;;;18.80;7.70;;;5.10;99.90;;;;;;4113011;28;20046;-60
2023/11/07 00:40:50;;;;;;;17.23;8.07;;;5.00;99.90;;;;;;4113083;28;20074;-59
2023/11/07 00:42:51;;;;;;;15.07;6.87;;;5.00;99.90;;;;;;4111634;28;20391;-58
2023/11/07 00:44:52;;;;;;;13.33;7.03;;;5.10;99.90;;;;;;4112909;28;20368;-59
2023/11/07 00:46:53;;;;;;;14.13;7.07;;;5.00;99.90;;;;;;4111936;28;20038;-60
2023/11/07 00:48:54;;;;;;;14.57;7.80;;;5.00;99.90;;;;;;4118656;28;20042;-60
2023/11/07 00:50:55;;;;;;;14.70;7.67;;;4.90;99.90;;;;;;4115359;28;21453;-60
2023/11/07 00:52:56;;;;;;;12.83;6.53;;;4.90;99.90;;;;;;4111915;28;20074;-61
2023/11/07 00:54:59;;;;;;;14.87;6.63;;;4.90;99.90;;;;;;4114825;28;20308;-59
2023/11/07 00:57:00;;;;;;;12.63;7.00;;;4.90;99.90;;;;;;4111749;28;20043;-59
2023/11/07 00:59:02;;;;;;;17.87;6.97;;;4.90;99.90;;;;;;4113970;28;20273;-61
2023/11/07 01:01:04;;;;;;;15.67;7.20;;;4.90;99.90;;;;;;4115011;28;20256;-57
2023/11/07 01:03:05;;;;;;;12.10;6.73;;;4.90;99.90;;;;;;4126973;28;20038;-60
2023/11/07 01:05:06;;;;;;;9.47;5.90;;;4.90;99.90;;;;;;4118174;28;20074;-60
2023/11/07 01:07:08;;;;;;;18.30;9.10;;;4.90;99.90;;;;;;4119914;28;20475;-62
2023/11/07 01:09:11;;;;;;;16.80;9.17;;;4.90;99.90;;;;;;4130463;28;20483;-61
2023/11/07 01:11:13;;;;;;;13.97;8.13;;;4.80;99.90;;;;;;4131405;28;20561;-60
2023/11/07 01:13:14;;;;;;;12.30;6.60;;;4.80;99.90;;;;;;4125381;28;20039;-60
2023/11/07 01:15:16;;;;;;;12.20;6.87;;;4.80;99.90;;;;;;4118578;28;20039;-61
2023/11/07 01:17:17;;;;;;;17.03;7.40;;;4.80;99.90;;;;;;4114695;28;20019;-61
2023/11/07 01:19:20;;;;;;;16.83;8.30;;;4.80;99.90;;;;;;4126159;28;20620;-57
2023/11/07 01:21:21;;;;;;;12.63;7.00;;;4.80;99.90;;;;;;4114773;28;20082;-60
2023/11/07 01:23:22;;;;;;;15.43;7.20;;;4.60;99.90;;;;;;4114855;28;20050;-60
2023/11/07 01:25:23;;;;;;;14.23;6.20;;;4.50;99.90;;;;;;4115777;28;20038;-60
2023/11/07 01:27:25;;;;;;;17.00;7.50;;;4.40;99.90;;;;;;4114542;28;20331;-61
2023/11/07 01:29:26;;;;;;;12.93;6.73;;;4.20;99.90;;;;;;4115265;28;20280;-59
2023/11/07 01:31:27;;;;;;;19.87;8.20;;;4.20;99.90;;;;;;4124858;28;20311;-57
2023/11/07 01:33:28;;;;;;;13.73;7.37;;;4.20;99.90;;;;;;4128325;28;20304;-59
2023/11/07 01:35:30;;;;;;;16.60;8.17;;;4.20;99.90;;;;;;4121685;28;20665;-59
2023/11/07 01:37:31;;;;;;;15.13;7.23;;;4.10;99.90;;;;;;4118773;28;20284;-60
2023/11/07 01:39:33;;;;;;;15.50;7.77;;;4.20;99.90;;;;;;4128878;28;20744;-58
2023/11/07 01:41:34;;;;;;;14.90;7.07;;;4.20;99.90;;;;;;4129041;28;20327;-59
2023/11/07 01:43:35;;;;;;;15.67;7.13;;;4.30;99.90;;;;;;4125557;28;20272;-60
2023/11/07 01:45:36;;;;;;;21.90;7.70;;;4.40;99.90;;;;;;4131179;28;20327;-60
2023/11/07 01:47:39;;;;;;;15.80;7.23;;;4.40;99.90;;;;;;4121391;28;20272;-60
2023/11/07 01:49:41;;;;;;;16.80;7.73;;;4.40;99.90;;;;;;4117749;28;20890;-60
2023/11/07 01:51:43;;;;;;;13.83;7.23;;;4.50;99.90;;;;;;4115598;28;20256;-57
2023/11/07 01:53:45;;;;;;;14.43;6.63;;;4.50;99.90;;;;;;4114715;28;20296;-58
2023/11/07 01:55:46;;;;;;;11.30;5.90;;;4.50;99.90;;;;;;4117081;28;20272;-57
2023/11/07 01:57:47;;;;;;;10.47;5.10;;;4.50;99.90;;;;;;4115361;28;20319;-60
2023/11/07 01:59:49;;;;;;;9.87;5.27;;;4.40;99.90;;;;;;4123749;28;20354;-59
2023/11/07 02:01:54;;;;;;;13.30;6.33;;;4.40;99.90;;;;;;4121911;28;20650;-58
2023/11/07 02:03:57;;;;;;;12.07;5.80;;;4.30;99.90;;;;;;4126360;28;20273;-57
2023/11/07 02:05:59;;;;;;;11.97;5.77;;;4.20;99.90;;;;;;4129420;28;20434;-60
2023/11/07 02:08:00;;;;;;;11.50;5.93;;;4.30;99.90;;;;;;4124916;28;20359;-57
2023/11/07 02:10:01;;;;;;;9.23;5.80;;;4.30;99.90;;;;;;4114029;28;21055;-55
2023/11/07 02:12:03;;;;;;;10.33;6.50;;;4.40;99.90;;;;;;4114936;28;20288;-58
2023/11/07 02:14:04;;;;;;;10.83;5.33;;;4.40;99.90;;;;;;4113640;28;20292;-57
2023/11/07 02:16:05;;;;;;;14.03;6.17;;;4.40;99.90;;;;;;4115228;28;20292;-60
2023/11/07 02:18:07;;;;;;;10.40;6.03;;;4.50;99.90;;;;;;4114722;28;20289;-59
2023/11/07 02:20:08;;;;;;;11.43;5.43;;;4.50;99.90;;;;;;4130342;28;20284;-60
2023/11/07 02:22:10;;;;;;;10.53;5.57;;;4.50;99.90;;;;;;4129972;28;20626;-58
2023/11/07 02:24:12;;;;;;;11.87;5.93;;;4.60;99.90;;;;;;4130591;28;20260;-60
2023/11/07 02:26:13;;;;;;;19.47;6.87;;;4.60;99.90;;;;;;4129827;28;20288;-57
2023/11/07 02:28:14;;;;;;;13.97;6.40;;;4.50;99.90;;;;;;4117418;28;20261;-60
2023/11/07 02:30:16;;;;;;;13.07;6.80;;;4.50;99.90;;;;;;4114222;28;20078;-55
2023/11/07 02:32:17;;;;;;;15.50;7.30;;;4.50;99.90;;;;;;4123900;28;20889;-60
2023/11/07 02:34:18;;;;;;;16.70;7.53;;;4.50;99.90;;;;;;4130134;28;20300;-59
2023/11/07 02:36:20;;;;;;;14.53;6.83;;;4.50;99.90;;;;;;4128900;28;20818;-59
2023/11/07 02:38:22;;;;;;;18.57;8.17;;;4.50;99.90;;;;;;4124028;28;20272;-61
2023/11/07 02:40:23;;;;;;;18.80;7.80;;;4.50;99.90;;;;;;4129288;28;20335;-59
2023/11/07 02:42:28;;;;;;;14.60;7.47;;;4.50;99.90;;;;;;4118319;28;20288;-61
2023/11/07 02:44:29;;;;;;;12.23;7.10;;;4.50;99.90;;;;;;4115527;28;20320;-61
2023/11/07 02:46:31;;;;;;;13.67;6.93;;;4.50;99.90;;;;;;4125239;28;20284;-60
2023/11/07 02:48:33;;;;;;;18.37;7.13;;;4.50;99.90;;;;;;4122391;28;20302;-61
2023/11/07 02:50:34;;;;;;;16.03;8.23;;;4.50;99.90;;;;;;4130302;28;20276;-60
2023/11/07 02:52:36;;;;;;;12.87;7.00;;;4.50;99.90;;;;;;4128793;28;20711;-60
2023/11/07 02:54:37;;;;;;;18.17;7.80;;;4.50;99.90;;;;;;4125159;28;20776;-60
2023/11/07 02:56:38;;;;;;;15.67;7.00;;;4.50;99.90;;;;;;4123267;28;20311;-60
2023/11/07 02:58:39;;;;;;;17.37;7.07;;;4.50;99.90;;;;;;4113776;28;20324;-59
2023/11/07 03:00:42;;;;;;;12.97;6.80;;;4.40;99.90;;;;;;4113742;28;20299;-61
2023/11/07 03:02:43;;;;;;;13.87;7.20;;;4.30;99.90;;;;;;4113411;28;20331;-61
2023/11/07 03:04:44;;;;;;;18.43;8.87;;;4.10;99.90;;;;;;4116608;28;20323;-58
2023/11/07 03:06:45;;;;;;;14.97;7.50;;;4.00;99.90;;;;;;4113984;28;20320;-62
2023/11/07 03:08:46;;;;;;;12.47;7.60;;;3.90;99.90;;;;;;4119225;28;20394;-59
2023/11/07 03:10:47;;;;;;;17.43;8.17;;;4.00;99.90;;;;;;4124132;28;20307;-60
2023/11/07 03:12:49;;;;;;;18.53;8.03;;;4.00;99.90;;;;;;4125748;28;20284;-56
2023/11/07 03:14:50;;;;;;;21.77;10.03;;;4.00;99.90;;;;;;4096970;28;20367;-58
2023/11/07 03:16:51;;;;;;;17.97;8.57;;;4.10;99.90;;;;;;4102162;28;20637;-59
2023/11/07 03:18:52;;;;;;;18.00;8.80;;;4.10;99.90;;;;;;4112595;28;20377;-60
2023/11/07 03:20:53;;;;;;;18.93;9.73;;;4.20;99.90;;;;;;4121222;28;20275;-59
2023/11/07 03:22:54;;;;;;;15.63;7.97;;;4.20;99.90;;;;;;4101396;28;20315;-59
2023/11/07 03:24:56;;;;;;;20.37;9.00;;;4.20;99.90;;;;;;4115154;28;20769;-60
2023/11/07 03:26:57;;;;;;;16.37;8.97;;;4.20;99.90;;;;;;4113200;28;20319;-60
2023/11/07 03:28:59;;;;;;;18.20;9.40;;;4.20;99.90;;;;;;4112972;28;20282;-63
2023/11/07 03:31:00;;;;;;;15.77;9.57;;;4.20;99.90;;;;;;4118429;28;20268;-60
2023/11/07 03:33:01;;;;;;;21.50;9.70;;;4.20;99.90;;;;;;4128376;28;20280;-57
2023/11/07 03:35:04;;;;;;;20.13;9.27;;;4.10;99.90;;;;;;4129014;28;20330;-60
2023/11/07 03:37:05;;;;;;;16.33;9.17;;;4.10;99.90;;;;;;4120431;28;20284;-59
2023/11/07 03:39:06;;;;;;;17.27;9.10;;;4.10;99.90;;;;;;4119452;28;20281;-59
2023/11/07 03:41:08;;;;;;;15.90;9.17;;;4.10;99.90;;;;;;4115560;28;20749;-61
2023/11/07 03:43:10;;;;;;;15.13;8.77;;;4.00;99.90;;;;;;4118423;28;20284;-58
2023/11/07 03:45:11;;;;;;;20.83;9.63;;;4.00;99.90;;;;;;4112178;28;20339;-60
2023/11/07 03:47:12;;;;;;;18.77;9.83;;;4.00;99.90;;;;;;4113492;28;20284;-61
2023/11/07 03:49:14;;;;;;;17.53;10.17;;;4.00;99.90;;;;;;4112198;28;20276;-58
2023/11/07 03:51:15;;;;;;;16.40;8.80;;;3.90;99.90;;;;;;4113554;28;20835;-58
2023/11/07 03:53:16;;;;;;;16.57;9.00;;;3.90;99.90;;;;;;4112155;28;20264;-58
2023/11/07 03:55:17;;;;;;;15.33;9.23;;;3.90;99.90;;;;;;4113717;28;20301;-60
2023/11/07 03:57:18;;;;;;;15.20;9.40;;;3.90;99.90;;;;;;4113591;28;20330;-57
2023/11/07 03:59:19;;;;;;;23.23;9.47;;;3.90;99.90;;;;;;4113173;28;20343;-58
2023/11/07 04:01:21;;;;;;;20.73;8.73;;;3.80;99.90;;;;;;4097689;28;20285;-59
2023/11/07 04:03:22;;;;;;;17.87;8.93;;;3.80;99.90;;;;;;4112292;28;20285;-59
2023/11/07 04:05:23;;;;;;;21.00;9.10;;;3.80;99.90;;;;;;4113465;28;20784;-57
2023/11/07 04:07:24;;;;;;;22.13;10.23;;;3.70;99.90;;;;;;4098383;28;20290;-59
2023/11/07 04:09:25;;;;;;;21.17;8.80;;;3.60;99.90;;;;;;4121013;28;20276;-56
2023/11/07 04:11:26;;;;;;;17.73;8.13;;;3.60;99.90;;;;;;4126095;28;20334;-60
2023/11/07 04:13:28;;;;;;;16.80;9.00;;;3.60;99.90;;;;;;4112929;28;20273;-58
2023/11/07 04:15:31;;;;;;;14.57;9.53;;;3.60;99.90;;;;;;4111886;28;20303;-59
2023/11/07 04:17:33;;;;;;;18.87;9.70;;;3.60;99.90;;;;;;4116493;28;20320;-59
2023/11/07 04:19:34;;;;;;;16.33;9.50;;;3.60;99.90;;;;;;4127770;28;20314;-60
2023/11/07 04:21:37;;;;;;;16.00;9.70;;;3.70;99.90;;;;;;4128648;28;20644;-59
2023/11/07 04:23:40;;;;;;;16.27;9.03;;;3.70;99.90;;;;;;4126262;28;20331;-59
2023/11/07 04:25:42;;;;;;;20.60;9.53;;;3.70;99.90;;;;;;4128961;28;20342;-58
2023/11/07 04:27:44;;;;;;;21.13;11.03;;;3.60;99.90;;;;;;4122195;28;20323;-58
2023/11/07 04:29:46;;;;;;;18.10;9.27;;;3.60;99.90;;;;;;4112516;28;20261;-61
2023/11/07 04:31:47;;;;;;;18.50;9.30;;;3.50;99.90;;;;;;4112083;28;20672;-60
2023/11/07 04:33:48;;;;;;;15.30;8.73;;;3.50;99.90;;;;;;4127211;28;20295;-60
2023/11/07 04:35:49;;;;;;;23.17;10.53;;;3.50;99.90;;;;;;4128183;28;20276;-60
2023/11/07 04:37:50;;;;;;;24.00;10.53;;;3.40;99.90;;;;;;4125968;28;20322;-60
2023/11/07 04:39:52;;;;;;;22.60;10.53;;;3.40;99.90;;;;;;4113353;28;20276;-61
2023/11/07 04:41:53;;;;;;;24.03;10.37;;;3.50;99.90;;;;;;4114967;28;20771;-61
2023/11/07 04:43:54;;;;;;;36.43;14.50;;;3.50;99.90;;;;;;4112657;28;20347;-61
2023/11/07 04:45:56;;;;;;;22.47;11.30;;;3.60;99.90;;;;;;4111393;28;20260;-60
2023/11/07 04:48:01;;;;;;;22.13;10.47;;;3.60;99.90;;;;;;4112592;28;20265;-59
2023/11/07 04:50:02;;;;;;;30.73;15.57;;;3.60;99.90;;;;;;4112566;28;20281;-57
2023/11/07 04:52:03;;;;;;;20.67;11.23;;;3.60;99.90;;;;;;4117351;28;20308;-58
2023/11/07 04:54:05;;;;;;;27.50;11.67;;;3.60;99.90;;;;;;4111287;28;20355;-61
2023/11/07 04:56:06;;;;;;;20.83;10.73;;;3.60;99.90;;;;;;4122940;28;20276;-59
2023/11/07 04:58:07;;;;;;;19.47;10.13;;;3.60;99.90;;;;;;4119317;28;20741;-58
2023/11/07 05:00:10;;;;;;;18.00;10.50;;;3.70;99.90;;;;;;4112205;28;20292;-58
2023/11/07 05:02:11;;;;;;;18.77;10.20;;;3.60;99.90;;;;;;4111421;28;20261;-58
2023/11/07 05:04:13;;;;;;;18.07;11.03;;;3.70;99.90;;;;;;4111533;28;20324;-60
2023/11/07 05:06:14;;;;;;;17.17;10.53;;;3.70;99.90;;;;;;4111345;28;20307;-59
2023/11/07 05:08:17;;;;;;;19.07;10.13;;;3.70;99.90;;;;;;4111481;28;20276;-60
2023/11/07 05:10:19;;;;;;;18.77;10.80;;;3.70;99.90;;;;;;4112109;28;20331;-59
2023/11/07 05:12:20;;;;;;;18.17;9.40;;;3.70;99.90;;;;;;4118941;28;20372;-60
2023/11/07 05:14:22;;;;;;;18.87;11.10;;;3.60;99.90;;;;;;4112667;28;20363;-60
2023/11/07 05:16:24;;;;;;;17.10;9.77;;;3.60;99.90;;;;;;4110860;28;20714;-60
2023/11/07 05:18:25;;;;;;;14.40;8.90;;;3.60;99.90;;;;;;4116210;28;20280;-59
2023/11/07 05:20:27;;;;;;;24.80;10.20;;;3.60;99.90;;;;;;4111774;28;20293;-60
2023/11/07 05:22:28;;;;;;;21.20;9.60;;;3.60;99.90;;;;;;4127802;28;20330;-58
2023/11/07 05:24:29;;;;;;;22.57;11.50;;;3.70;99.90;;;;;;4126788;28;20724;-60
2023/11/07 05:26:30;;;;;;;25.83;12.73;;;3.70;99.90;;;;;;4126955;28;20338;-59
2023/11/07 05:28:32;;;;;;;27.70;12.40;;;3.70;99.90;;;;;;4126826;28;20264;-60
2023/11/07 05:30:33;;;;;;;25.40;12.77;;;3.70;99.90;;;;;;4127732;28;20625;-59
2023/11/07 05:32:34;;;;;;;29.33;12.53;;;3.60;99.90;;;;;;4126874;28;20575;-61
2023/11/07 05:34:39;;;;;;;25.57;12.63;;;3.60;99.90;;;;;;4124399;28;20296;-61
2023/11/07 05:36:41;;;;;;;24.70;13.63;;;3.70;99.90;;;;;;4126385;28;20272;-59
2023/11/07 05:38:45;;;;;;;19.07;11.13;;;3.70;99.90;;;;;;4107694;28;20824;-60
2023/11/07 05:40:47;;;;;;;18.17;10.63;;;3.80;99.90;;;;;;4112721;28;20428;-59
2023/11/07 05:42:48;;;;;;;19.93;11.00;;;3.80;99.90;;;;;;4115435;28;20354;-59
2023/11/07 05:44:49;;;;;;;21.13;12.43;;;3.70;99.90;;;;;;4128181;28;20267;-59
2023/11/07 05:46:51;;;;;;;21.17;11.57;;;3.70;99.90;;;;;;4126418;28;20661;-58
2023/11/07 05:48:52;;;;;;;21.97;12.70;;;3.80;99.90;;;;;;4122036;28;21157;-60
2023/11/07 05:50:53;;;;;;;20.50;11.37;;;4.00;99.90;;;;;;4122054;28;20280;-59
2023/11/07 05:52:54;;;;;;;21.33;11.30;;;4.20;99.90;;;;;;4130186;28;20292;-58
2023/11/07 05:54:55;;;;;;;19.00;11.37;;;4.40;99.90;;;;;;4120592;28;20363;-59
2023/11/07 05:56:56;;;;;;;19.17;9.73;;;4.60;99.90;;;;;;4118099;28;20300;-60
2023/11/07 05:58:58;;;;;;;20.67;11.97;;;4.80;99.90;;;;;;4113597;28;20729;-59
2023/11/07 06:00:59;;;;;;;22.33;12.50;;;4.90;99.90;;;;;;4119645;28;20039;-59
2023/11/07 06:03:00;;;;;;;15.33;10.63;;;5.10;99.90;;;;;;4121413;28;20295;-59
2023/11/07 06:05:02;;;;;;;16.73;10.03;;;5.20;99.90;;;;;;4130383;28;20565;-60
2023/11/07 06:07:03;;;;;;;20.50;10.10;;;5.30;99.90;;;;;;4129973;28;20031;-60
2023/11/07 06:09:04;;;;;;;22.97;10.80;;;5.40;99.90;;;;;;4129916;28;20034;-60
2023/11/07 06:11:06;;;;;;;20.67;11.23;;;5.60;99.90;;;;;;4130097;28;20087;-58
2023/11/07 06:13:07;;;;;;;17.27;10.57;;;5.60;99.90;;;;;;4129625;28;20506;-60
2023/11/07 06:15:08;;;;;;;18.73;10.90;;;5.60;99.90;;;;;;4130367;28;20046;-60
2023/11/07 06:17:11;;;;;;;34.00;11.83;;;5.80;99.90;;;;;;4129230;28;20065;-60
2023/11/07 06:19:12;;;;;;;20.43;11.60;;;5.70;99.90;;;;;;4130110;28;20100;-60
2023/11/07 06:21:13;;;;;;;21.20;11.53;;;6.00;99.90;;;;;;4129461;28;20026;-60
2023/11/07 06:23:15;;;;;;;19.57;11.67;;;6.30;99.90;;;;;;4128848;28;20030;-58
2023/11/07 06:25:16;;;;;;;19.60;10.23;;;6.70;99.90;;;;;;4129455;28;20092;-60
2023/11/07 06:27:17;;;;;;;18.00;11.33;;;6.90;99.90;;;;;;4130695;28;20038;-61
2023/11/07 06:29:20;;;;;;;22.63;11.63;;;7.20;99.90;;;;;;4129260;28;20035;-59
2023/11/07 06:31:25;;;;;;;19.13;10.60;;;7.50;99.90;;;;;;4130352;28;20089;-61
2023/11/07 06:33:26;;;;;;;15.43;8.73;;;7.50;99.90;;;;;;4129004;28;20145;-58
2023/11/07 06:35:27;;;;;;;17.23;8.77;;;7.40;99.90;;;;;;4129849;28;20046;-60
2023/11/07 06:37:33;;;;;;;13.23;8.33;;;7.20;99.90;;;;;;4128899;28;20046;-60
2023/11/07 06:39:34;;;;;;;16.57;7.17;;;6.90;99.90;;;;;;4129559;28;20053;-59
2023/11/07 06:41:38;;;;;;;16.27;7.97;;;6.80;99.90;;;;;;4129471;28;20026;-60
2023/11/07 06:43:41;;;;;;;9.00;6.33;;;7.00;99.90;;;;;;4129487;28;20368;-55
2023/11/07 06:45:42;;;;;;;14.57;8.37;;;7.10;99.90;;;;;;4129574;28;20035;-60
2023/11/07 06:47:45;;;;;;;14.00;8.10;;;7.10;99.90;;;;;;4129064;28;20446;-60
2023/11/07 06:49:46;;;;;;;12.27;7.30;;;7.00;99.90;;;;;;4129424;28;20438;-59
2023/11/07 06:51:48;;;;;;;13.00;7.77;;;7.00;99.90;;;;;;4128679;28;20100;-59
2023/11/07 06:53:49;;;;;;;12.13;7.67;;;6.90;99.90;;;;;;4130110;28;20030;-59
2023/11/07 06:55:50;;;;;;;18.63;10.30;;;6.90;99.90;;;;;;4129068;28;20050;-59
2023/11/07 06:57:52;;;;;;;19.03;11.23;;;6.70;99.90;;;;;;4129916;28;20094;-60
2023/11/07 06:59:54;;;;;;;16.73;9.40;;;6.50;99.90;;;;;;4128872;28;20018;-59
2023/11/07 07:01:55;;;;;;;22.77;9.50;;;6.40;99.90;;;;;;4129668;28;20073;-60
2023/11/07 07:03:56;;;;;;;25.63;9.40;;;6.20;99.90;;;;;;4127775;28;20384;-59
2023/11/07 07:05:57;;;;;;;18.20;8.50;;;6.40;99.90;;;;;;4129667;28;20101;-60
2023/11/07 07:07:58;;;;;;;21.93;9.33;;;6.60;99.90;;;;;;4128640;28;20084;-59
2023/11/07 07:09:59;;;;;;;17.60;8.83;;;6.60;99.90;;;;;;4128149;28;20031;-61
2023/11/07 07:12:01;;;;;;;22.57;8.60;;;6.50;99.90;;;;;;4128660;28;20522;-58
2023/11/07 07:14:03;;;;;;;18.27;7.97;;;6.50;99.90;;;;;;4128893;28;20092;-60
2023/11/07 07:16:05;;;;;;;13.07;8.07;;;6.40;99.90;;;;;;4128810;28;20035;-59
2023/11/07 07:18:07;;;;;;;15.33;8.33;;;6.40;99.90;;;;;;4128794;28;20076;-60
2023/11/07 07:20:11;;;;;;;20.47;9.70;;;6.50;99.90;;;;;;4129185;28;20465;-59
2023/11/07 07:22:12;;;;;;;20.33;10.20;;;6.60;99.90;;;;;;4128235;28;20047;-56
2023/11/07 07:24:21;;;;;;;18.03;10.70;;;6.50;99.90;;;;;;4129527;28;20539;-59
2023/11/07 07:26:22;;;;;;;23.17;11.10;;;6.50;99.90;;;;;;4128939;28;20066;-58
2023/11/07 07:28:25;;;;;;;20.80;12.27;;;6.70;99.90;;;;;;4129421;28;20108;-60
2023/11/07 07:30:26;;;;;;;25.50;12.07;;;7.00;99.90;;;;;;4128263;28;20023;-60
2023/11/07 07:32:28;;;;;;;21.90;11.13;;;7.30;99.90;;;;;;4129313;28;20034;-58
2023/11/07 07:34:32;;;;;;;24.33;12.70;;;7.60;99.90;;;;;;4127648;28;20415;-60
2023/11/07 07:36:43;;;;;;;25.50;12.70;;;7.80;99.90;;;;;;4129126;28;20054;-58
2023/11/07 07:38:44;;;;;;;30.10;13.23;;;8.00;99.90;;;;;;4127745;28;20081;-59
2023/11/07 07:40:45;;;;;;;20.20;10.73;;;8.30;99.90;;;;;;4129119;28;20050;-59
2023/11/07 07:42:47;;;;;;;26.60;10.97;;;8.20;99.90;;;;;;4128070;28;20434;-59
2023/11/07 07:44:50;;;;;;;50.73;11.50;;;8.10;99.90;;;;;;4129087;28;20027;-58
2023/11/07 07:46:56;;;;;;;31.07;13.17;;;7.90;99.90;;;;;;4127934;28;20097;-58
2023/11/07 07:48:57;;;;;;;17.93;10.90;;;7.70;99.90;;;;;;4129026;28;20022;-60
2023/11/07 07:51:01;;;;;;;19.97;10.70;;;7.60;99.90;;;;;;4127680;28;20463;-60
2023/11/07 07:53:06;;;;;;;23.90;11.47;;;7.60;99.90;;;;;;4128854;28;20026;-60
2023/11/07 07:55:08;;;;;;;22.23;11.47;;;7.70;99.90;;;;;;4128368;28;20034;-60
2023/11/07 07:57:09;;;;;;;22.13;11.20;;;7.70;99.90;;;;;;4129054;28;20088;-60
2023/11/07 07:59:12;;;;;;;22.07;10.87;;;7.90;99.90;;;;;;4128488;28;20030;-60
2023/11/07 08:01:18;;;;;;;17.17;10.07;;;8.00;99.90;;;;;;4128215;28;20083;-60
2023/11/07 08:03:20;;;;;;;20.17;9.53;;;8.10;99.90;;;;;;4128792;28;20084;-59
2023/11/07 08:05:21;;;;;;;23.37;9.93;;;8.10;99.90;;;;;;4127655;28;20054;-59
2023/11/07 08:07:22;;;;;;;20.57;10.27;;;8.10;99.90;;;;;;4129034;28;20473;-59
2023/11/07 08:09:24;;;;;;;23.53;10.43;;;8.00;99.90;;;;;;4126342;28;20093;-59
2023/11/07 08:11:26;;;;;;;21.83;9.90;;;8.10;99.90;;;;;;4128819;28;20042;-60
2023/11/07 08:13:28;;;;;;;18.93;9.53;;;8.10;99.90;;;;;;4127809;28;20113;-58
2023/11/07 08:15:30;;;;;;;18.70;9.27;;;8.20;99.90;;;;;;4128628;28;20050;-60
2023/11/07 08:17:31;;;;;;;18.60;8.93;;;8.10;99.90;;;;;;4127602;28;20557;-59
2023/11/07 08:19:32;;;;;;;16.93;9.20;;;8.30;99.90;;;;;;4128653;28;20026;-59
2023/11/07 08:21:33;;;;;;;27.93;10.00;;;8.40;99.90;;;;;;4127552;28;20438;-62
2023/11/07 08:23:34;;;;;;;19.37;9.77;;;8.30;99.90;;;;;;4128372;28;20085;-62
2023/11/07 08:25:36;;;;;;;20.73;8.33;;;8.30;99.90;;;;;;4127720;28;20118;-60
2023/11/07 08:27:41;;;;;;;21.53;9.80;;;8.40;99.90;;;;;;4128086;28;20018;-60
2023/11/07 08:29:43;;;;;;;15.90;8.67;;;8.30;99.90;;;;;;4127595;28;20483;-59
2023/11/07 08:31:44;;;;;;;17.37;9.80;;;8.30;99.90;;;;;;4127587;28;20089;-60
2023/11/07 08:33:47;;;;;;;24.37;10.13;;;8.40;99.90;;;;;;4128104;28;20030;-60
2023/11/07 08:35:50;;;;;;;20.37;9.37;;;8.30;99.90;;;;;;4127435;28;20186;-61
2023/11/07 08:37:51;;;;;;;16.63;9.13;;;8.30;99.90;;;;;;4128544;28;20085;-59
2023/11/07 08:39:53;;;;;;;21.03;10.00;;;8.30;99.90;;;;;;4127041;28;20644;-61
2023/11/07 08:41:55;;;;;;;21.53;10.67;;;8.30;99.90;;;;;;4128869;28;20439;-60
2023/11/07 08:43:56;;;;;;;20.57;10.30;;;8.40;99.90;;;;;;4127577;28;20089;-61
2023/11/07 08:45:57;;;;;;;21.83;10.17;;;8.40;99.90;;;;;;4128397;28;20043;-62
2023/11/07 08:47:58;;;;;;;21.20;9.57;;;8.50;99.90;;;;;;4127125;28;20096;-59
2023/11/07 08:49:59;;;;;;;23.10;11.07;;;8.50;99.90;;;;;;4128109;28;20074;-58
2023/11/07 08:52:00;;;;;;;16.07;9.40;;;8.50;99.90;;;;;;4127198;28;20050;-60
2023/11/07 08:54:01;;;;;;;14.27;8.80;;;8.60;99.90;;;;;;4128360;28;20046;-60
2023/11/07 08:56:03;;;;;;;15.67;8.17;;;8.60;99.90;;;;;;4127748;28;20129;-59
2023/11/07 08:58:05;;;;;;;17.47;9.40;;;8.70;99.90;;;;;;4127865;28;20038;-60
2023/11/07 09:00:08;;;;;;;16.27;8.13;;;8.80;99.90;;;;;;4127550;28;20022;-60
2023/11/07 09:02:13;;;;;;;18.57;8.40;;;8.90;99.90;;;;;;4127536;28;20356;-60
2023/11/07 09:04:14;;;;;;;17.33;10.07;;;8.90;99.90;;;;;;4127479;28;20068;-60
2023/11/07 09:06:15;;;;;;;13.10;7.80;;;8.90;99.90;;;;;;4127463;28;20483;-60
2023/11/07 09:08:17;;;;;;;14.90;8.70;;;9.00;99.90;;;;;;4127824;28;20096;-59
2023/11/07 09:10:22;;;;;;;25.03;11.03;;;9.00;99.90;;;;;;4127102;28;20034;-60
2023/11/07 09:12:24;;;;;;;19.40;11.97;;;9.00;99.90;;;;;;4128397;28;20089;-59
2023/11/07 09:14:25;;;;;;;21.17;11.77;;;9.00;99.90;;;;;;4127217;28;20054;-60
2023/11/07 09:16:26;;;;;;;17.23;9.57;;;9.10;99.90;;;;;;4128200;28;20407;-58
2023/11/07 09:18:27;;;;;;;22.13;9.80;;;9.10;99.90;;;;;;4126952;28;20341;-60
2023/11/07 09:20:28;;;;;;;15.03;8.37;;;9.10;99.90;;;;;;4128253;28;20459;-59
2023/11/07 09:22:30;;;;;;;14.00;8.30;;;9.20;99.90;;;;;;4127118;28;20105;-60
2023/11/07 09:24:32;;;;;;;13.23;6.90;;;9.20;99.90;;;;;;4128333;28;20034;-61
2023/11/07 09:26:33;;;;;;;12.33;7.00;;;9.20;99.90;;;;;;4127741;28;20483;-60
2023/11/07 09:28:35;;;;;;;13.77;7.67;;;9.20;99.90;;;;;;4131186;28;20030;-61
2023/11/07 09:30:36;;;;;;;10.77;6.90;;;9.40;99.90;;;;;;4130094;28;20038;-58
2023/11/07 09:32:38;;;;;;;19.07;7.57;;;9.60;99.90;;;;;;4130915;28;20023;-60
2023/11/07 09:34:40;;;;;;;17.57;8.87;;;9.80;99.90;;;;;;4130310;28;20038;-60
2023/11/07 09:36:41;;;;;;;11.97;6.33;;;9.90;99.90;;;;;;4130219;28;20096;-59
2023/11/07 09:38:44;;;;;;;14.23;6.93;;;10.00;99.90;;;;;;4130445;28;20089;-61
2023/11/07 09:40:45;;;;;;;17.27;7.47;;;10.00;99.90;;;;;;4130108;28;20089;-61
2023/11/07 09:42:48;;;;;;;16.50;7.23;;;10.10;99.90;;;;;;4130785;28;20096;-60
2023/11/07 09:44:50;;;;;;;17.57;8.00;;;10.10;99.90;;;;;;4129512;28;20513;-59
2023/11/07 09:46:52;;;;;;;18.20;8.83;;;10.20;99.90;;;;;;4130924;28;20038;-61
2023/11/07 09:48:53;;;;;;;14.43;8.73;;;10.20;99.90;;;;;;4129579;28;20030;-59
2023/11/07 09:50:57;;;;;;;18.10;9.50;;;10.10;99.90;;;;;;4130776;28;20065;-60
2023/11/07 09:52:59;;;;;;;20.57;10.10;;;10.20;99.90;;;;;;4129779;28;20087;-60
2023/11/07 09:55:02;;;;;;;19.30;10.17;;;10.30;99.90;;;;;;4130913;28;20022;-61
2023/11/07 09:57:08;;;;;;;19.03;9.90;;;10.30;99.90;;;;;;4129884;28;20096;-59
2023/11/07 09:59:35;;;;;;;20.90;10.60;;;10.40;99.90;;;;;;4130812;28;20034;-58
2023/11/07 10:01:37;;;;;;;20.97;9.83;;;10.60;99.90;;;;;;4129371;28;20054;-60
2023/11/07 10:03:43;;;;;;;17.63;9.70;;;10.70;99.90;;;;;;4130337;28;20096;-61
2023/11/07 10:05:47;;;;;;;16.30;9.40;;;10.80;99.90;;;;;;4129087;28;20065;-62
2023/11/07 10:07:49;;;;;;;10.20;6.43;;;10.80;99.90;;;;;;4130541;28;20026;-61
2023/11/07 10:09:50;;;;;;;13.50;5.63;;;10.90;99.90;;;;;;4129406;28;20100;-59
2023/11/07 10:11:53;;;;;;;10.43;5.90;;;11.00;99.90;;;;;;4130496;28;20030;-61
2023/11/07 10:14:03;;;;;;;11.10;5.90;;;11.10;99.90;;;;;;4129479;28;20104;-59
2023/11/07 10:16:08;;;;;;;11.25;5.95;;;11.20;99.90;;;;;;4130012;28;20089;-61
2023/11/07 10:18:10;;;;;;;6.97;4.43;;;11.30;99.90;;;;;;4129490;28;20034;-61
2023/11/07 10:20:11;;;;;;;13.10;5.63;;;11.40;99.90;;;;;;4129996;28;20145;-61
2023/11/07 10:22:13;;;;;;;7.43;4.43;;;11.50;99.90;;;;;;4129505;28;20176;-61
2023/11/07 10:24:15;;;;;;;7.30;4.80;;;11.60;99.90;;;;;;4129418;28;20105;-61
2023/11/07 10:26:17;;;;;;;9.10;4.43;;;11.70;99.90;;;;;;4130362;28;20030;-60
2023/11/07 10:28:22;;;;;;;9.47;4.47;;;11.80;99.90;;;;;;4128859;28;20101;-59
2023/11/07 10:30:36;;;;;;;11.07;4.40;;;11.90;99.90;;;;;;4129963;28;20490;-61